sensor_id;sensor_type;location;lat;lon;timestamp;pressure;altitude;pressure_sealevel;temperature;humidity
9905;BME280;4991;43.566;27.820;2023-02-28T00:01:25;99752.22;;;4.22;100.00
9905;BME280;4991;43.566;27.820;2023-02-28T00:03:51;99767.19;;;4.30;100.00
9905;BME280;4991;43.566;27.820;2023-02-28T00:06:17;99786.06;;;4.30;100.00
9905;BME280;4991;43.566;27.820;2023-02-28T00:08:43;99776.81;;;4.26;100.00
9905;BME280;4991;43.566;27.820;2023-02-28T00:11:11;99761.38;;;4.21;100.00
9905;BME280;4991;43.566;27.820;2023-02-28T00:13:40;99747.09;;;4.09;100.00
9905;BME280;4991;43.566;27.820;2023-02-28T00:16:09;99745.59;;;4.02;100.00
9905;BME280;4991;43.566;27.820;2023-02-28T00:18:35;99733.41;;;3.99;100.00
9905;BME280;4991;43.566;27.820;2023-02-28T00:21:01;99731.66;;;3.93;100.00
9905;BME280;4991;43.566;27.820;2023-02-28T00:23:27;99744.09;;;3.94;100.00
9905;BME280;4991;43.566;27.820;2023-02-28T00:25:53;99732.94;;;4.02;100.00
9905;BME280;4991;43.566;27.820;2023-02-28T00:28:19;99751.81;;;4.02;100.00
9905;BME280;4991;43.566;27.820;2023-02-28T00:30:45;99748.63;;;4.05;100.00
9905;BME280;4991;43.566;27.820;2023-02-28T00:33:11;99758.22;;;4.13;100.00
9905;BME280;4991;43.566;27.820;2023-02-28T00:35:37;99780.34;;;4.15;100.00
9905;BME280;4991;43.566;27.820;2023-02-28T00:38:02;99788.13;;;4.11;100.00
9905;BME280;4991;43.566;27.820;2023-02-28T00:40:28;99796.41;;;4.10;100.00
9905;BME280;4991;43.566;27.820;2023-02-28T00:42:54;99800.78;;;4.11;100.00
9905;BME280;4991;43.566;27.820;2023-02-28T00:45:20;99796.09;;;4.06;100.00
9905;BME280;4991;43.566;27.820;2023-02-28T00:47:45;99809.91;;;4.10;100.00
9905;BME280;4991;43.566;27.820;2023-02-28T00:50:12;99794.91;;;4.02;100.00
9905;BME280;4991;43.566;27.820;2023-02-28T00:52:37;99797.03;;;4.00;100.00
9905;BME280;4991;43.566;27.820;2023-02-28T00:55:03;99796.78;;;4.02;100.00
9905;BME280;4991;43.566;27.820;2023-02-28T00:57:29;99803.03;;;3.90;100.00
9905;BME280;4991;43.566;27.820;2023-02-28T00:59:55;99818.44;;;4.18;100.00
9905;BME280;4991;43.566;27.820;2023-02-28T01:02:21;99813.75;;;4.14;100.00
9905;BME280;4991;43.566;27.820;2023-02-28T01:04:47;99816.94;;;4.11;100.00
9905;BME280;4991;43.566;27.820;2023-02-28T01:07:13;99814.94;;;4.18;100.00
9905;BME280;4991;43.566;27.820;2023-02-28T01:09:40;99821.63;;;4.15;100.00
9905;BME280;4991;43.566;27.820;2023-02-28T01:12:07;99802.75;;;4.04;100.00
9905;BME280;4991;43.566;27.820;2023-02-28T01:14:33;99795.84;;;4.08;100.00
9905;BME280;4991;43.566;27.820;2023-02-28T01:17:00;99790.72;;;4.06;100.00
9905;BME280;4991;43.566;27.820;2023-02-28T01:19:25;99779.09;;;4.06;100.00
9905;BME280;4991;43.566;27.820;2023-02-28T01:21:51;99786.84;;;4.02;100.00
9905;BME280;4991;43.566;27.820;2023-02-28T01:24:16;99811.31;;;4.01;100.00
9905;BME280;4991;43.566;27.820;2023-02-28T01:26:42;99791.75;;;3.93;100.00
9905;BME280;4991;43.566;27.820;2023-02-28T01:29:08;99781.84;;;3.82;100.00
9905;BME280;4991;43.566;27.820;2023-02-28T01:31:33;99790.81;;;3.88;100.00
9905;BME280;4991;43.566;27.820;2023-02-28T01:33:59;99781.22;;;4.04;100.00
9905;BME280;4991;43.566;27.820;2023-02-28T01:36:25;99784.00;;;4.09;100.00
9905;BME280;4991;43.566;27.820;2023-02-28T01:38:51;99790.72;;;3.94;100.00
9905;BME280;4991;43.566;27.820;2023-02-28T01:41:23;99790.94;;;3.93;100.00
9905;BME280;4991;43.566;27.820;2023-02-28T01:46:16;99794.94;;;3.90;100.00
9905;BME280;4991;43.566;27.820;2023-02-28T01:48:46;99793.53;;;4.00;100.00
9905;BME280;4991;43.566;27.820;2023-02-28T01:54:23;99802.28;;;4.07;100.00
9905;BME280;4991;43.566;27.820;2023-02-28T01:56:54;99795.50;;;4.04;100.00
9905;BME280;4991;43.566;27.820;2023-02-28T01:59:28;99787.91;;;4.01;100.00
9905;BME280;4991;43.566;27.820;2023-02-28T02:01:55;99786.44;;;4.22;100.00
9905;BME280;4991;43.566;27.820;2023-02-28T02:04:23;99782.13;;;4.21;100.00
9905;BME280;4991;43.566;27.820;2023-02-28T02:06:51;99777.56;;;4.21;100.00
9905;BME280;4991;43.566;27.820;2023-02-28T02:09:17;99780.84;;;4.12;100.00
9905;BME280;4991;43.566;27.820;2023-02-28T02:11:44;99784.22;;;4.19;100.00
9905;BME280;4991;43.566;27.820;2023-02-28T02:14:22;99776.84;;;4.14;100.00
9905;BME280;4991;43.566;27.820;2023-02-28T02:33:19;99835.75;;;4.34;100.00
9905;BME280;4991;43.566;27.820;2023-02-28T02:35:56;99838.88;;;4.03;100.00
9905;BME280;4991;43.566;27.820;2023-02-28T02:43:40;99828.19;;;4.08;100.00
9905;BME280;4991;43.566;27.820;2023-02-28T02:46:14;99814.84;;;4.13;100.00
9905;BME280;4991;43.566;27.820;2023-02-28T02:48:41;99817.53;;;4.13;100.00
9905;BME280;4991;43.566;27.820;2023-02-28T02:51:15;99826.88;;;4.22;100.00
9905;BME280;4991;43.566;27.820;2023-02-28T02:54:08;99834.72;;;4.23;100.00
9905;BME280;4991;43.566;27.820;2023-02-28T02:56:36;99843.16;;;4.27;100.00
9905;BME280;4991;43.566;27.820;2023-02-28T02:59:07;99850.34;;;4.21;100.00
9905;BME280;4991;43.566;27.820;2023-02-28T03:01:37;99861.56;;;4.30;100.00
9905;BME280;4991;43.566;27.820;2023-02-28T03:04:10;99852.28;;;4.37;100.00
9905;BME280;4991;43.566;27.820;2023-02-28T03:06:38;99846.31;;;4.35;100.00
9905;BME280;4991;43.566;27.820;2023-02-28T03:09:04;99848.19;;;4.35;100.00
9905;BME280;4991;43.566;27.820;2023-02-28T03:11:30;99832.47;;;4.32;100.00
9905;BME280;4991;43.566;27.820;2023-02-28T03:22:28;99850.50;;;4.43;100.00
9905;BME280;4991;43.566;27.820;2023-02-28T03:30:22;99837.59;;;4.45;100.00
9905;BME280;4991;43.566;27.820;2023-02-28T03:33:17;99839.13;;;4.52;100.00
9905;BME280;4991;43.566;27.820;2023-02-28T03:35:58;99832.78;;;4.47;100.00
9905;BME280;4991;43.566;27.820;2023-02-28T03:38:35;99853.28;;;4.59;100.00
9905;BME280;4991;43.566;27.820;2023-02-28T03:43:53;99851.19;;;4.50;100.00
9905;BME280;4991;43.566;27.820;2023-02-28T03:46:23;99845.44;;;4.46;100.00
9905;BME280;4991;43.566;27.820;2023-02-28T03:49:08;99840.41;;;4.50;100.00
9905;BME280;4991;43.566;27.820;2023-02-28T03:51:38;99830.44;;;4.50;100.00
9905;BME280;4991;43.566;27.820;2023-02-28T03:54:12;99841.72;;;4.47;100.00
9905;BME280;4991;43.566;27.820;2023-02-28T03:56:44;99855.19;;;4.47;100.00
9905;BME280;4991;43.566;27.820;2023-02-28T03:59:28;99857.66;;;4.49;100.00
9905;BME280;4991;43.566;27.820;2023-02-28T04:01:57;99846.84;;;4.60;100.00
9905;BME280;4991;43.566;27.820;2023-02-28T04:04:23;99843.06;;;4.61;100.00
9905;BME280;4991;43.566;27.820;2023-02-28T04:06:51;99839.75;;;4.71;100.00
9905;BME280;4991;43.566;27.820;2023-02-28T04:09:16;99836.72;;;4.67;100.00
9905;BME280;4991;43.566;27.820;2023-02-28T04:11:49;99840.22;;;4.68;100.00
9905;BME280;4991;43.566;27.820;2023-02-28T04:14:17;99826.63;;;4.63;100.00
9905;BME280;4991;43.566;27.820;2023-02-28T04:16:42;99846.31;;;4.75;100.00
9905;BME280;4991;43.566;27.820;2023-02-28T04:19:09;99849.34;;;4.78;100.00
9905;BME280;4991;43.566;27.820;2023-02-28T04:21:38;99864.94;;;4.76;100.00
9905;BME280;4991;43.566;27.820;2023-02-28T04:24:05;99881.38;;;4.75;100.00
9905;BME280;4991;43.566;27.820;2023-02-28T04:26:33;99881.53;;;4.68;100.00
9905;BME280;4991;43.566;27.820;2023-02-28T04:28:59;99870.97;;;4.67;100.00
9905;BME280;4991;43.566;27.820;2023-02-28T04:31:25;99873.19;;;4.70;100.00
9905;BME280;4991;43.566;27.820;2023-02-28T04:33:50;99890.66;;;4.79;100.00
9905;BME280;4991;43.566;27.820;2023-02-28T04:36:17;99895.47;;;4.77;100.00
9905;BME280;4991;43.566;27.820;2023-02-28T04:38:44;99873.78;;;4.72;100.00
9905;BME280;4991;43.566;27.820;2023-02-28T04:41:10;99872.69;;;4.73;100.00
9905;BME280;4991;43.566;27.820;2023-02-28T04:43:36;99862.69;;;4.85;100.00
9905;BME280;4991;43.566;27.820;2023-02-28T04:46:03;99869.13;;;4.95;100.00
9905;BME280;4991;43.566;27.820;2023-02-28T04:48:31;99877.03;;;4.85;100.00
9905;BME280;4991;43.566;27.820;2023-02-28T04:51:01;99874.22;;;4.80;100.00
9905;BME280;4991;43.566;27.820;2023-02-28T04:53:28;99866.66;;;4.66;100.00
9905;BME280;4991;43.566;27.820;2023-02-28T04:55:54;99872.84;;;4.66;100.00
9905;BME280;4991;43.566;27.820;2023-02-28T04:58:21;99873.03;;;4.76;100.00
9905;BME280;4991;43.566;27.820;2023-02-28T05:00:53;99870.16;;;4.66;100.00
9905;BME280;4991;43.566;27.820;2023-02-28T05:03:20;99865.34;;;4.68;100.00
9905;BME280;4991;43.566;27.820;2023-02-28T05:05:48;99873.09;;;4.65;100.00
9905;BME280;4991;43.566;27.820;2023-02-28T05:08:14;99877.06;;;4.74;100.00
9905;BME280;4991;43.566;27.820;2023-02-28T05:10:39;99870.97;;;4.67;100.00
9905;BME280;4991;43.566;27.820;2023-02-28T05:13:05;99854.63;;;4.45;100.00
9905;BME280;4991;43.566;27.820;2023-02-28T05:15:31;99876.16;;;4.57;100.00
9905;BME280;4991;43.566;27.820;2023-02-28T05:17:56;99882.28;;;4.52;100.00
9905;BME280;4991;43.566;27.820;2023-02-28T05:20:22;99900.06;;;4.65;100.00
9905;BME280;4991;43.566;27.820;2023-02-28T05:22:49;99890.81;;;4.61;100.00
9905;BME280;4991;43.566;27.820;2023-02-28T05:25:20;99898.09;;;4.60;100.00
9905;BME280;4991;43.566;27.820;2023-02-28T05:27:47;99904.97;;;4.68;100.00
9905;BME280;4991;43.566;27.820;2023-02-28T05:30:13;99904.75;;;4.58;100.00
9905;BME280;4991;43.566;27.820;2023-02-28T05:32:40;99912.06;;;4.57;100.00
9905;BME280;4991;43.566;27.820;2023-02-28T05:35:10;99902.31;;;4.56;100.00
9905;BME280;4991;43.566;27.820;2023-02-28T05:37:38;99919.19;;;4.63;100.00
9905;BME280;4991;43.566;27.820;2023-02-28T05:40:07;99925.09;;;4.49;100.00
9905;BME280;4991;43.566;27.820;2023-02-28T05:42:36;99928.81;;;4.59;100.00
9905;BME280;4991;43.566;27.820;2023-02-28T05:45:04;99922.97;;;4.51;100.00
9905;BME280;4991;43.566;27.820;2023-02-28T05:47:30;99943.00;;;4.55;100.00
9905;BME280;4991;43.566;27.820;2023-02-28T05:49:55;99941.34;;;4.65;100.00
9905;BME280;4991;43.566;27.820;2023-02-28T05:52:21;99932.91;;;4.73;100.00
9905;BME280;4991;43.566;27.820;2023-02-28T05:54:47;99928.81;;;4.71;100.00
9905;BME280;4991;43.566;27.820;2023-02-28T05:57:13;99930.34;;;4.67;100.00
9905;BME280;4991;43.566;27.820;2023-02-28T05:59:38;99930.34;;;4.67;100.00
9905;BME280;4991;43.566;27.820;2023-02-28T06:02:15;99934.91;;;4.55;100.00
9905;BME280;4991;43.566;27.820;2023-02-28T06:04:42;99922.41;;;4.37;100.00
9905;BME280;4991;43.566;27.820;2023-02-28T06:07:08;99928.03;;;4.47;100.00
9905;BME280;4991;43.566;27.820;2023-02-28T06:09:34;99930.59;;;4.42;100.00
9905;BME280;4991;43.566;27.820;2023-02-28T06:12:01;99941.84;;;4.51;100.00
9905;BME280;4991;43.566;27.820;2023-02-28T06:14:29;99952.03;;;4.60;100.00
9905;BME280;4991;43.566;27.820;2023-02-28T06:16:56;99938.59;;;4.37;100.00
9905;BME280;4991;43.566;27.820;2023-02-28T06:19:22;99942.09;;;4.49;100.00
9905;BME280;4991;43.566;27.820;2023-02-28T06:21:51;99943.47;;;4.63;100.00
9905;BME280;4991;43.566;27.820;2023-02-28T06:24:19;99954.38;;;4.57;100.00
9905;BME280;4991;43.566;27.820;2023-02-28T06:26:44;99946.53;;;4.55;100.00
9905;BME280;4991;43.566;27.820;2023-02-28T06:29:10;99948.72;;;4.70;100.00
9905;BME280;4991;43.566;27.820;2023-02-28T06:31:37;99952.53;;;4.57;100.00
9905;BME280;4991;43.566;27.820;2023-02-28T06:34:04;99951.56;;;4.63;100.00
9905;BME280;4991;43.566;27.820;2023-02-28T06:36:30;99951.56;;;4.63;100.00
9905;BME280;4991;43.566;27.820;2023-02-28T06:38:56;99952.63;;;4.62;100.00
9905;BME280;4991;43.566;27.820;2023-02-28T06:41:26;99965.88;;;4.64;100.00
9905;BME280;4991;43.566;27.820;2023-02-28T06:43:53;99956.84;;;4.58;100.00
9905;BME280;4991;43.566;27.820;2023-02-28T06:46:19;99953.78;;;4.66;100.00
9905;BME280;4991;43.566;27.820;2023-02-28T06:48:45;99966.25;;;4.56;100.00
9905;BME280;4991;43.566;27.820;2023-02-28T06:51:14;99956.28;;;4.45;100.00
9905;BME280;4991;43.566;27.820;2023-02-28T06:53:40;99970.22;;;4.42;100.00
9905;BME280;4991;43.566;27.820;2023-02-28T06:56:13;99973.53;;;4.44;100.00
9905;BME280;4991;43.566;27.820;2023-02-28T06:58:39;99970.09;;;4.48;100.00
9905;BME280;4991;43.566;27.820;2023-02-28T07:01:06;99956.97;;;4.40;100.00
9905;BME280;4991;43.566;27.820;2023-02-28T07:03:32;99953.56;;;4.45;100.00
9905;BME280;4991;43.566;27.820;2023-02-28T07:05:58;99946.19;;;4.40;100.00
9905;BME280;4991;43.566;27.820;2023-02-28T07:08:25;99933.66;;;4.46;100.00
9905;BME280;4991;43.566;27.820;2023-02-28T07:10:53;99933.19;;;4.49;100.00
9905;BME280;4991;43.566;27.820;2023-02-28T07:13:19;99938.34;;;4.50;100.00
9905;BME280;4991;43.566;27.820;2023-02-28T07:15:44;99949.59;;;4.47;100.00
9905;BME280;4991;43.566;27.820;2023-02-28T07:18:17;99957.09;;;4.57;100.00
9905;BME280;4991;43.566;27.820;2023-02-28T07:20:44;99965.63;;;4.65;100.00
9905;BME280;4991;43.566;27.820;2023-02-28T07:23:10;99972.88;;;4.76;100.00
9905;BME280;4991;43.566;27.820;2023-02-28T07:25:35;99979.72;;;4.67;100.00
9905;BME280;4991;43.566;27.820;2023-02-28T07:28:01;99980.63;;;4.73;100.00
9905;BME280;4991;43.566;27.820;2023-02-28T07:30:27;99969.25;;;4.59;100.00
9905;BME280;4991;43.566;27.820;2023-02-28T07:32:52;99962.00;;;4.48;100.00
9905;BME280;4991;43.566;27.820;2023-02-28T07:35:20;99970.00;;;4.43;100.00
9905;BME280;4991;43.566;27.820;2023-02-28T07:37:45;99959.44;;;4.53;100.00
9905;BME280;4991;43.566;27.820;2023-02-28T07:40:12;99960.84;;;4.67;100.00
9905;BME280;4991;43.566;27.820;2023-02-28T07:42:39;99954.13;;;4.70;100.00
9905;BME280;4991;43.566;27.820;2023-02-28T07:45:05;99967.38;;;4.71;100.00
9905;BME280;4991;43.566;27.820;2023-02-28T07:47:31;99965.72;;;4.82;100.00
9905;BME280;4991;43.566;27.820;2023-02-28T07:49:57;99966.88;;;4.86;100.00
9905;BME280;4991;43.566;27.820;2023-02-28T07:52:24;99977.56;;;4.92;100.00
9905;BME280;4991;43.566;27.820;2023-02-28T07:54:53;99973.19;;;5.03;100.00
9905;BME280;4991;43.566;27.820;2023-02-28T07:57:18;99974.00;;;5.03;100.00
9905;BME280;4991;43.566;27.820;2023-02-28T07:59:44;99961.59;;;5.19;100.00
9905;BME280;4991;43.566;27.820;2023-02-28T08:02:14;99964.81;;;5.16;100.00
9905;BME280;4991;43.566;27.820;2023-02-28T08:04:40;99961.91;;;5.06;100.00
9905;BME280;4991;43.566;27.820;2023-02-28T08:07:06;99961.84;;;5.17;100.00
9905;BME280;4991;43.566;27.820;2023-02-28T08:09:32;99958.50;;;5.10;100.00
9905;BME280;4991;43.566;27.820;2023-02-28T08:11:58;99955.44;;;5.07;100.00
9905;BME280;4991;43.566;27.820;2023-02-28T08:14:23;99949.44;;;5.16;100.00
9905;BME280;4991;43.566;27.820;2023-02-28T08:16:49;99946.69;;;5.28;100.00
9905;BME280;4991;43.566;27.820;2023-02-28T08:19:15;99944.84;;;5.17;100.00
9905;BME280;4991;43.566;27.820;2023-02-28T08:21:40;99950.06;;;5.07;100.00
9905;BME280;4991;43.566;27.820;2023-02-28T08:24:06;99943.63;;;5.24;100.00
9905;BME280;4991;43.566;27.820;2023-02-28T08:26:32;99951.78;;;5.41;100.00
9905;BME280;4991;43.566;27.820;2023-02-28T08:28:57;99959.50;;;5.49;100.00
9905;BME280;4991;43.566;27.820;2023-02-28T08:31:23;99959.50;;;5.49;100.00
9905;BME280;4991;43.566;27.820;2023-02-28T08:33:49;99964.28;;;5.59;100.00
9905;BME280;4991;43.566;27.820;2023-02-28T08:36:17;99961.03;;;5.73;100.00
9905;BME280;4991;43.566;27.820;2023-02-28T08:38:43;99949.69;;;5.60;100.00
9905;BME280;4991;43.566;27.820;2023-02-28T08:41:10;99962.84;;;5.84;100.00
9905;BME280;4991;43.566;27.820;2023-02-28T08:43:37;99950.53;;;5.77;100.00
9905;BME280;4991;43.566;27.820;2023-02-28T08:46:03;99941.22;;;6.01;100.00
9905;BME280;4991;43.566;27.820;2023-02-28T08:48:30;99933.03;;;6.12;100.00
9905;BME280;4991;43.566;27.820;2023-02-28T08:50:58;99948.03;;;6.03;100.00
9905;BME280;4991;43.566;27.820;2023-02-28T08:53:24;99947.63;;;6.11;100.00
9905;BME280;4991;43.566;27.820;2023-02-28T08:56:00;99956.53;;;5.95;100.00
9905;BME280;4991;43.566;27.820;2023-02-28T08:58:27;99954.09;;;6.10;100.00
9905;BME280;4991;43.566;27.820;2023-02-28T09:00:53;99948.69;;;6.10;100.00
9905;BME280;4991;43.566;27.820;2023-02-28T09:03:19;99951.53;;;6.37;100.00
9905;BME280;4991;43.566;27.820;2023-02-28T09:06:01;99967.41;;;6.50;100.00
9905;BME280;4991;43.566;27.820;2023-02-28T09:08:29;99973.88;;;6.66;100.00
9905;BME280;4991;43.566;27.820;2023-02-28T09:10:58;99983.34;;;6.46;100.00
9905;BME280;4991;43.566;27.820;2023-02-28T09:13:25;99978.31;;;6.55;100.00
9905;BME280;4991;43.566;27.820;2023-02-28T09:15:52;99982.00;;;6.49;100.00
9905;BME280;4991;43.566;27.820;2023-02-28T09:18:18;99972.53;;;6.46;100.00
9905;BME280;4991;43.566;27.820;2023-02-28T09:20:44;99973.22;;;6.58;100.00
9905;BME280;4991;43.566;27.820;2023-02-28T09:23:11;99962.66;;;6.40;100.00
9905;BME280;4991;43.566;27.820;2023-02-28T09:25:52;99963.00;;;6.27;100.00
9905;BME280;4991;43.566;27.820;2023-02-28T09:28:19;99961.69;;;6.46;100.00
9905;BME280;4991;43.566;27.820;2023-02-28T09:30:46;99972.72;;;6.62;100.00
9905;BME280;4991;43.566;27.820;2023-02-28T09:33:13;99975.84;;;6.53;100.00
9905;BME280;4991;43.566;27.820;2023-02-28T09:35:39;99968.47;;;6.49;100.00
9905;BME280;4991;43.566;27.820;2023-02-28T09:38:06;99964.06;;;6.43;100.00
9905;BME280;4991;43.566;27.820;2023-02-28T09:40:39;99957.03;;;6.64;100.00
9905;BME280;4991;43.566;27.820;2023-02-28T09:43:12;99959.72;;;6.42;100.00
9905;BME280;4991;43.566;27.820;2023-02-28T09:45:42;99956.13;;;6.36;100.00
9905;BME280;4991;43.566;27.820;2023-02-28T09:48:31;99963.84;;;6.28;100.00
9905;BME280;4991;43.566;27.820;2023-02-28T09:51:04;99955.81;;;6.16;100.00
9905;BME280;4991;43.566;27.820;2023-02-28T09:53:36;99952.38;;;6.21;100.00
9905;BME280;4991;43.566;27.820;2023-02-28T09:56:09;99950.91;;;6.13;100.00
9905;BME280;4991;43.566;27.820;2023-02-28T09:59:49;99975.63;;;6.05;100.00
9905;BME280;4991;43.566;27.820;2023-02-28T10:06:54;99984.78;;;6.54;100.00
9905;BME280;4991;43.566;27.820;2023-02-28T10:09:24;99981.47;;;6.69;100.00
9905;BME280;4991;43.566;27.820;2023-02-28T10:11:52;99985.47;;;6.44;100.00
9905;BME280;4991;43.566;27.820;2023-02-28T10:14:32;99971.94;;;6.44;100.00
9905;BME280;4991;43.566;27.820;2023-02-28T10:17:04;99967.94;;;6.30;100.00
9905;BME280;4991;43.566;27.820;2023-02-28T10:24:50;99981.44;;;6.47;100.00
9905;BME280;4991;43.566;27.820;2023-02-28T10:27:21;99968.34;;;6.39;100.00
9905;BME280;4991;43.566;27.820;2023-02-28T10:32:18;99967.56;;;6.43;100.00
9905;BME280;4991;43.566;27.820;2023-02-28T10:34:44;99971.38;;;6.42;100.00
9905;BME280;4991;43.566;27.820;2023-02-28T10:37:13;99978.63;;;6.58;100.00
9905;BME280;4991;43.566;27.820;2023-02-28T10:39:46;99977.19;;;6.51;100.00
9905;BME280;4991;43.566;27.820;2023-02-28T10:42:26;99971.22;;;6.32;100.00
9905;BME280;4991;43.566;27.820;2023-02-28T10:45:14;99972.81;;;6.50;100.00
9905;BME280;4991;43.566;27.820;2023-02-28T10:58:52;99949.34;;;6.55;100.00
9905;BME280;4991;43.566;27.820;2023-02-28T11:07:22;99938.50;;;6.72;100.00
9905;BME280;4991;43.566;27.820;2023-02-28T11:09:57;99934.88;;;6.67;100.00
9905;BME280;4991;43.566;27.820;2023-02-28T11:12:34;99924.88;;;6.89;100.00
9905;BME280;4991;43.566;27.820;2023-02-28T11:15:05;99928.56;;;6.78;100.00
9905;BME280;4991;43.566;27.820;2023-02-28T11:17:32;99927.97;;;6.76;100.00
9905;BME280;4991;43.566;27.820;2023-02-28T11:20:04;99930.88;;;6.91;100.00
9905;BME280;4991;43.566;27.820;2023-02-28T11:22:36;99924.75;;;6.79;100.00
9905;BME280;4991;43.566;27.820;2023-02-28T11:25:09;99921.69;;;6.92;100.00
9905;BME280;4991;43.566;27.820;2023-02-28T11:27:53;99924.75;;;7.00;100.00
9905;BME280;4991;43.566;27.820;2023-02-28T11:32:57;99901.53;;;6.83;100.00
9905;BME280;4991;43.566;27.820;2023-02-28T11:35:31;99903.94;;;6.79;100.00
9905;BME280;4991;43.566;27.820;2023-02-28T11:38:00;99907.13;;;6.54;100.00
9905;BME280;4991;43.566;27.820;2023-02-28T11:40:41;99907.41;;;6.75;100.00
9905;BME280;4991;43.566;27.820;2023-02-28T11:46:42;99898.50;;;7.01;100.00
9905;BME280;4991;43.566;27.820;2023-02-28T11:49:33;99893.28;;;6.94;100.00
9905;BME280;4991;43.566;27.820;2023-02-28T12:05:30;99874.13;;;7.01;100.00
9905;BME280;4991;43.566;27.820;2023-02-28T12:13:25;99869.97;;;6.93;100.00
9905;BME280;4991;43.566;27.820;2023-02-28T12:16:16;99872.25;;;7.01;100.00
9905;BME280;4991;43.566;27.820;2023-02-28T12:19:20;99880.53;;;6.68;100.00
9905;BME280;4991;43.566;27.820;2023-02-28T12:27:06;99892.81;;;6.37;100.00
9905;BME280;4991;43.566;27.820;2023-02-28T12:32:39;99889.84;;;6.17;100.00
9905;BME280;4991;43.566;27.820;2023-02-28T12:35:13;99891.31;;;6.25;100.00
9905;BME280;4991;43.566;27.820;2023-02-28T12:40:34;99896.00;;;6.13;100.00
9905;BME280;4991;43.566;27.820;2023-02-28T12:43:09;99899.53;;;6.13;100.00
9905;BME280;4991;43.566;27.820;2023-02-28T12:48:47;99902.44;;;6.28;100.00
9905;BME280;4991;43.566;27.820;2023-02-28T12:51:15;99902.84;;;6.20;100.00
9905;BME280;4991;43.566;27.820;2023-02-28T12:57:12;99894.59;;;6.10;100.00
9905;BME280;4991;43.566;27.820;2023-02-28T12:59:53;99904.53;;;5.88;100.00
9905;BME280;4991;43.566;27.820;2023-02-28T13:11:31;99907.03;;;5.62;100.00
9905;BME280;4991;43.566;27.820;2023-02-28T13:14:00;99906.22;;;5.61;100.00
9905;BME280;4991;43.566;27.820;2023-02-28T13:16:26;99906.78;;;5.63;100.00
9905;BME280;4991;43.566;27.820;2023-02-28T13:19:08;99901.16;;;5.65;100.00
9905;BME280;4991;43.566;27.820;2023-02-28T13:21:43;99894.81;;;5.59;100.00
9905;BME280;4991;43.566;27.820;2023-02-28T13:24:10;99895.91;;;5.58;100.00
9905;BME280;4991;43.566;27.820;2023-02-28T13:34:33;99884.44;;;5.51;100.00
9905;BME280;4991;43.566;27.820;2023-02-28T13:39:47;99894.91;;;5.48;100.00
9905;BME280;4991;43.566;27.820;2023-02-28T13:47:30;99906.25;;;5.33;100.00
9905;BME280;4991;43.566;27.820;2023-02-28T14:01:34;99885.16;;;5.30;100.00
9905;BME280;4991;43.566;27.820;2023-02-28T14:06:52;99876.66;;;5.10;100.00
9905;BME280;4991;43.566;27.820;2023-02-28T14:09:29;99880.66;;;5.07;100.00
9905;BME280;4991;43.566;27.820;2023-02-28T14:11:56;99871.38;;;5.15;100.00
9905;BME280;4991;43.566;27.820;2023-02-28T14:17:02;99887.31;;;5.16;100.00
9905;BME280;4991;43.566;27.820;2023-02-28T14:19:30;99889.53;;;5.19;100.00
9905;BME280;4991;43.566;27.820;2023-02-28T14:25:17;99881.34;;;5.14;100.00
9905;BME280;4991;43.566;27.820;2023-02-28T14:27:53;99883.66;;;4.94;100.00
9905;BME280;4991;43.566;27.820;2023-02-28T14:38:17;99877.69;;;4.92;100.00
9905;BME280;4991;43.566;27.820;2023-02-28T14:40:47;99881.09;;;4.88;100.00
9905;BME280;4991;43.566;27.820;2023-02-28T14:43:25;99886.50;;;4.88;100.00
9905;BME280;4991;43.566;27.820;2023-02-28T14:45:56;99883.00;;;4.87;100.00
9905;BME280;4991;43.566;27.820;2023-02-28T14:48:22;99890.19;;;4.70;100.00
9905;BME280;4991;43.566;27.820;2023-02-28T14:50:58;99895.94;;;4.74;100.00
9905;BME280;4991;43.566;27.820;2023-02-28T14:53:27;99902.28;;;4.68;100.00
9905;BME280;4991;43.566;27.820;2023-02-28T14:55:54;99895.72;;;4.64;100.00
9905;BME280;4991;43.566;27.820;2023-02-28T14:58:26;99899.38;;;4.58;100.00
9905;BME280;4991;43.566;27.820;2023-02-28T15:00:54;99904.53;;;4.59;100.00
9905;BME280;4991;43.566;27.820;2023-02-28T15:05:55;99893.88;;;4.53;100.00
9905;BME280;4991;43.566;27.820;2023-02-28T15:08:23;99898.91;;;4.61;100.00
9905;BME280;4991;43.566;27.820;2023-02-28T15:13:48;99898.09;;;4.60;100.00
9905;BME280;4991;43.566;27.820;2023-02-28T15:16:34;99893.63;;;4.66;100.00
9905;BME280;4991;43.566;27.820;2023-02-28T15:21:49;99888.47;;;4.53;100.00
9905;BME280;4991;43.566;27.820;2023-02-28T15:24:20;99894.44;;;4.55;100.00
9905;BME280;4991;43.566;27.820;2023-02-28T15:27:00;99896.44;;;4.48;100.00
9905;BME280;4991;43.566;27.820;2023-02-28T15:29:29;99902.31;;;4.56;100.00
9905;BME280;4991;43.566;27.820;2023-02-28T15:32:05;99905.84;;;4.57;100.00
9905;BME280;4991;43.566;27.820;2023-02-28T15:34:42;99881.94;;;4.49;100.00
9905;BME280;4991;43.566;27.820;2023-02-28T15:39:56;99899.13;;;4.59;100.00
9905;BME280;4991;43.566;27.820;2023-02-28T15:42:23;99903.75;;;4.47;100.00
9905;BME280;4991;43.566;27.820;2023-02-28T15:44:52;99883.47;;;4.33;100.00
9905;BME280;4991;43.566;27.820;2023-02-28T15:47:27;99884.16;;;4.40;100.00
9905;BME280;4991;43.566;27.820;2023-02-28T15:50:06;99890.16;;;4.42;100.00
9905;BME280;4991;43.566;27.820;2023-02-28T15:52:45;99888.28;;;4.31;100.00
9905;BME280;4991;43.566;27.820;2023-02-28T15:55:28;99893.66;;;4.43;100.00
9905;BME280;4991;43.566;27.820;2023-02-28T15:57:56;99895.19;;;4.39;100.00
9905;BME280;4991;43.566;27.820;2023-02-28T16:00:30;99896.81;;;4.40;100.00
9905;BME280;4991;43.566;27.820;2023-02-28T16:02:58;99893.22;;;4.34;100.00
9905;BME280;4991;43.566;27.820;2023-02-28T16:05:26;99907.06;;;4.38;100.00
9905;BME280;4991;43.566;27.820;2023-02-28T16:08:06;99915.25;;;4.31;100.00
9905;BME280;4991;43.566;27.820;2023-02-28T16:10:36;99925.13;;;4.26;100.00
9905;BME280;4991;43.566;27.820;2023-02-28T16:13:02;99924.41;;;4.30;100.00
9905;BME280;4991;43.566;27.820;2023-02-28T16:15:31;99916.53;;;4.40;100.00
9905;BME280;4991;43.566;27.820;2023-02-28T16:18:00;99913.38;;;4.32;100.00
9905;BME280;4991;43.566;27.820;2023-02-28T16:20:30;99912.34;;;4.33;100.00
9905;BME280;4991;43.566;27.820;2023-02-28T16:22:56;99920.31;;;4.28;100.00